createdAt,value
2018-09-18T00:00:11.477Z,63.00
2018-09-18T00:04:14.819Z,63.70
2018-09-18T00:08:18.124Z,63.70
2018-09-18T00:12:21.463Z,63.30
2018-09-18T00:16:24.777Z,63.70
2018-09-18T00:20:28.123Z,63.90
2018-09-18T00:24:31.434Z,63.60
2018-09-18T00:28:34.747Z,63.50
2018-09-18T00:32:38.072Z,63.80
2018-09-18T00:36:41.400Z,64.50
2018-09-18T00:40:44.815Z,63.60
2018-09-18T00:44:48.195Z,64.20
2018-09-18T00:48:51.578Z,64.10
2018-09-18T00:52:54.904Z,63.70
2018-09-18T00:56:58.238Z,63.60
2018-09-18T01:01:01.632Z,64.80
2018-09-18T01:05:05.040Z,63.90
2018-09-18T01:09:09.463Z,64.90
2018-09-18T01:13:12.848Z,64.10
2018-09-18T01:17:16.179Z,65.10
2018-09-18T01:21:19.685Z,65.20
2018-09-18T01:25:23.012Z,65.10
2018-09-18T01:29:26.699Z,65.30
2018-09-18T01:33:30.090Z,64.30
2018-09-18T01:37:33.427Z,65.00
2018-09-18T01:41:36.745Z,65.90
2018-09-18T01:45:40.158Z,64.40
2018-09-18T01:49:44.501Z,64.90
2018-09-18T01:53:47.820Z,64.40
2018-09-18T01:57:51.170Z,64.70
2018-09-18T02:01:54.494Z,65.00
2018-09-18T02:05:57.854Z,67.40
2018-09-18T02:10:01.175Z,64.70
2018-09-18T02:14:04.547Z,64.60
2018-09-18T02:18:07.887Z,64.70
2018-09-18T02:22:11.275Z,66.00
2018-09-18T02:26:14.624Z,65.80
2018-09-18T02:30:17.934Z,65.20
2018-09-18T02:34:21.299Z,64.80
2018-09-18T02:38:24.611Z,65.90
2018-09-18T02:42:27.988Z,66.00
2018-09-18T02:46:31.326Z,65.40
2018-09-18T02:50:34.755Z,65.90
2018-09-18T02:54:38.111Z,66.80
2018-09-18T02:58:41.440Z,65.20
2018-09-18T03:02:44.835Z,64.50
2018-09-18T03:06:48.186Z,65.00
2018-09-18T03:10:51.586Z,64.60
2018-09-18T03:14:54.912Z,64.00
2018-09-18T03:18:58.275Z,63.70
2018-09-18T03:23:01.616Z,63.20
2018-09-18T03:27:04.959Z,64.60
2018-09-18T03:31:08.286Z,64.20
2018-09-18T03:35:11.644Z,63.70
2018-09-18T03:39:15.023Z,64.00
2018-09-18T03:43:18.334Z,63.70
2018-09-18T03:47:22.803Z,65.10
2018-09-18T03:51:26.123Z,62.70
2018-09-18T03:55:29.461Z,62.70
2018-09-18T03:59:32.790Z,63.50
2018-09-18T04:03:36.280Z,62.50
2018-09-18T04:07:39.587Z,63.00
2018-09-18T04:11:42.938Z,62.80
2018-09-18T04:15:46.279Z,62.90
2018-09-18T04:19:49.623Z,62.70
2018-09-18T04:23:52.964Z,63.00
2018-09-18T04:27:56.290Z,62.60
2018-09-18T04:32:00.345Z,62.60
2018-09-18T04:36:03.671Z,62.70
2018-09-18T04:40:07.968Z,62.80
2018-09-18T04:44:11.595Z,62.90
2018-09-18T04:48:14.947Z,62.70
2018-09-18T04:52:18.247Z,62.40
2018-09-18T04:56:21.569Z,62.40
2018-09-18T05:00:24.995Z,62.50
2018-09-18T05:04:28.370Z,63.00
2018-09-18T05:08:31.743Z,63.60
2018-09-18T05:12:35.115Z,63.40
2018-09-18T05:16:38.479Z,64.10
2018-09-18T05:20:41.914Z,64.10
2018-09-18T05:24:45.272Z,63.70
2018-09-18T05:28:48.782Z,63.30
2018-09-18T05:32:52.124Z,64.10
2018-09-18T05:36:55.487Z,64.60
2018-09-18T05:40:58.882Z,64.30
2018-09-18T05:45:02.368Z,63.60
2018-09-18T05:49:05.843Z,63.90
2018-09-18T05:53:09.613Z,64.00
2018-09-18T05:57:18.264Z,63.90
2018-09-18T06:01:21.712Z,64.10
2018-09-18T06:05:25.124Z,63.70
2018-09-18T06:09:28.559Z,63.70
2018-09-18T06:13:32.015Z,63.10
2018-09-18T06:17:35.457Z,63.30
2018-09-18T06:21:38.879Z,62.80
2018-09-18T06:25:42.329Z,62.70
2018-09-18T06:29:45.684Z,63.30
2018-09-18T06:33:49.008Z,62.90
2018-09-18T06:37:52.320Z,63.30
2018-09-18T06:41:55.635Z,63.20
2018-09-18T06:45:59.007Z,63.80
2018-09-18T06:50:02.342Z,64.70
2018-09-18T06:54:05.693Z,64.50
2018-09-18T06:58:09.022Z,64.80
2018-09-18T07:02:12.392Z,64.40
2018-09-18T07:06:15.755Z,63.50
2018-09-18T07:10:19.118Z,63.60
2018-09-18T07:14:22.528Z,66.00
2018-09-18T07:18:25.876Z,65.00
2018-09-18T07:22:29.219Z,64.40
2018-09-18T07:26:32.608Z,64.00
2018-09-18T07:30:35.971Z,64.00
2018-09-18T07:34:39.383Z,64.20
2018-09-18T07:38:42.706Z,63.90
2018-09-18T07:42:46.047Z,63.60
2018-09-18T07:46:49.401Z,63.30
2018-09-18T07:50:52.759Z,62.50
2018-09-18T07:54:56.108Z,62.90
2018-09-18T07:59:00.264Z,62.40
2018-09-18T08:03:03.629Z,62.70
2018-09-18T08:07:08.964Z,62.30
2018-09-18T08:11:12.320Z,60.50
2018-09-18T08:15:15.679Z,61.30
2018-09-18T08:19:19.099Z,60.00
2018-09-18T08:23:22.404Z,60.60
2018-09-18T08:27:25.756Z,61.20
2018-09-18T08:31:29.150Z,60.70
2018-09-18T08:35:32.500Z,59.70
2018-09-18T08:39:35.936Z,58.50
2018-09-18T08:43:39.206Z,59.90
2018-09-18T08:47:42.564Z,60.50
2018-09-18T08:51:46.010Z,58.40
2018-09-18T08:55:49.357Z,57.00
2018-09-18T08:59:52.702Z,59.10
2018-09-18T09:03:56.063Z,57.50
2018-09-18T09:07:59.559Z,58.80
2018-09-18T09:12:02.864Z,57.30
2018-09-18T09:16:06.418Z,56.30
2018-09-18T09:24:12.866Z,84.30
2018-09-18T09:28:16.220Z,58.00
2018-09-18T09:32:19.706Z,57.30
2018-09-18T09:36:23.018Z,53.50
2018-09-18T09:40:26.399Z,56.80
2018-09-18T09:44:29.783Z,54.50
2018-09-18T09:52:38.131Z,55.90
2018-09-18T09:56:41.544Z,54.50
2018-09-18T10:00:50.337Z,56.10
2018-09-18T10:04:53.723Z,55.50
2018-09-18T10:08:57.108Z,56.00
2018-09-18T10:13:00.496Z,49.10
2018-09-18T10:25:10.133Z,70.00
2018-09-18T10:29:13.475Z,53.20
2018-09-18T10:33:16.892Z,52.00
2018-09-18T10:37:20.235Z,54.30
2018-09-18T10:41:23.687Z,53.30
2018-09-18T10:45:27.009Z,54.00
2018-09-18T10:49:30.463Z,52.70
2018-09-18T10:57:36.884Z,51.80
2018-09-18T11:01:40.295Z,52.50
2018-09-18T11:05:43.667Z,51.40
2018-09-18T11:13:50.311Z,50.00
2018-09-18T11:17:53.597Z,53.40
2018-09-18T11:21:57.029Z,51.00
2018-09-18T11:26:00.382Z,52.90
2018-09-18T11:30:03.782Z,52.70
2018-09-18T11:34:07.169Z,53.30
2018-09-18T11:38:10.516Z,51.90
2018-09-18T11:42:13.844Z,45.70
2018-09-18T11:46:17.170Z,51.40
2018-09-18T11:50:20.561Z,49.60
2018-09-18T11:54:23.911Z,45.10
2018-09-18T11:58:27.261Z,46.80
2018-09-18T12:02:30.610Z,45.90
2018-09-18T12:06:33.958Z,47.50
2018-09-18T12:10:37.315Z,44.60
2018-09-18T12:14:40.640Z,46.00
2018-09-18T12:18:44.027Z,48.20
2018-09-18T12:22:47.440Z,42.50
2018-09-18T12:26:50.692Z,45.80
2018-09-18T12:30:54.027Z,45.90
2018-09-18T12:34:57.357Z,42.20
2018-09-18T12:39:00.686Z,43.70
2018-09-18T12:43:04.179Z,45.90
2018-09-18T12:47:07.519Z,42.30
2018-09-18T12:51:10.872Z,42.40
2018-09-18T12:55:14.205Z,45.00
2018-09-18T12:59:17.655Z,42.30
2018-09-18T13:03:20.955Z,42.00
2018-09-18T13:07:24.287Z,42.20
2018-09-18T13:11:27.735Z,41.70
2018-09-18T13:15:31.069Z,42.20
2018-09-18T13:19:34.440Z,43.70
2018-09-18T13:23:37.768Z,40.00
2018-09-18T13:27:41.148Z,39.90
2018-09-18T13:31:44.435Z,40.40
2018-09-18T13:35:47.766Z,41.90
2018-09-18T13:39:51.117Z,44.80
2018-09-18T13:43:54.459Z,42.20
2018-09-18T13:47:57.800Z,44.10
2018-09-18T13:52:01.292Z,42.70
2018-09-18T13:56:04.564Z,43.90
2018-09-18T14:00:07.929Z,44.80
2018-09-18T14:04:11.343Z,43.70
2018-09-18T14:08:14.680Z,44.60
2018-09-18T14:12:18.383Z,44.10
2018-09-18T14:16:21.703Z,41.20
2018-09-18T14:20:25.291Z,42.80
2018-09-18T14:24:28.566Z,44.10
2018-09-18T14:28:31.892Z,42.90
2018-09-18T14:32:35.291Z,43.50
2018-09-18T14:36:38.631Z,42.00
2018-09-18T14:40:41.951Z,41.70
2018-09-18T14:44:49.430Z,41.80
2018-09-18T14:48:52.799Z,41.50
2018-09-18T14:52:56.148Z,40.80
2018-09-18T14:56:59.492Z,42.30
2018-09-18T15:01:02.871Z,44.20
2018-09-18T15:05:08.037Z,42.90
2018-09-18T15:09:11.969Z,43.80
2018-09-18T15:13:15.327Z,41.00
2018-09-18T15:17:18.656Z,42.40
2018-09-18T15:21:22.088Z,43.90
2018-09-18T15:25:25.388Z,41.80
2018-09-18T15:29:28.734Z,41.00
2018-09-18T15:33:32.213Z,40.50
2018-09-18T15:37:35.506Z,42.40
2018-09-18T15:41:38.887Z,40.00
2018-09-18T15:45:42.362Z,41.70
2018-09-18T15:49:45.620Z,40.00
2018-09-18T15:53:48.961Z,39.00
2018-09-18T15:57:52.355Z,38.20
2018-09-18T16:01:55.672Z,39.20
2018-09-18T16:05:59.010Z,38.70
2018-09-18T16:10:02.413Z,40.40
2018-09-18T16:14:05.760Z,40.30
2018-09-18T16:18:09.075Z,40.20
2018-09-18T16:22:12.403Z,39.70
2018-09-18T16:26:15.765Z,39.60
2018-09-18T16:30:19.082Z,40.80
2018-09-18T16:34:22.622Z,39.50
2018-09-18T16:38:25.944Z,41.40
2018-09-18T16:42:29.299Z,41.60
2018-09-18T16:46:32.643Z,40.70
2018-09-18T16:50:44.091Z,41.30
2018-09-18T16:54:47.484Z,41.60
2018-09-18T16:58:50.767Z,42.00
2018-09-18T17:02:54.107Z,41.70
2018-09-18T17:06:57.508Z,40.20
2018-09-18T17:11:00.851Z,42.00
2018-09-18T17:15:04.240Z,40.80
2018-09-18T17:19:07.592Z,41.10
2018-09-18T17:23:10.932Z,42.40
2018-09-18T17:27:14.286Z,41.40
2018-09-18T17:31:17.675Z,42.70
2018-09-18T17:35:21.027Z,43.10
2018-09-18T17:39:24.366Z,42.50
2018-09-18T17:43:27.721Z,43.00
2018-09-18T17:47:31.078Z,42.80
2018-09-18T17:51:34.474Z,42.60
2018-09-18T17:55:37.798Z,43.20
2018-09-18T17:59:41.369Z,42.30
2018-09-18T18:03:44.599Z,43.30
2018-09-18T18:07:47.936Z,43.40
2018-09-18T18:11:51.289Z,43.90
2018-09-18T18:15:54.604Z,43.70
2018-09-18T18:19:58.080Z,44.80
2018-09-18T18:24:01.404Z,43.60
2018-09-18T18:28:04.761Z,44.40
2018-09-18T18:32:08.357Z,44.70
2018-09-18T18:36:11.678Z,43.90
2018-09-18T18:40:15.086Z,44.20
2018-09-18T18:44:18.442Z,44.50
2018-09-18T18:48:21.873Z,44.40
2018-09-18T18:52:25.110Z,44.60
2018-09-18T18:56:28.448Z,45.00
2018-09-18T19:00:31.803Z,45.30
2018-09-18T19:04:35.137Z,45.20
2018-09-18T19:08:38.448Z,45.60
2018-09-18T19:12:41.772Z,45.40
2018-09-18T19:16:45.123Z,45.60
2018-09-18T19:20:48.479Z,46.40
2018-09-18T19:24:51.827Z,45.50
2018-09-18T19:28:55.637Z,46.20
2018-09-18T19:32:59.013Z,46.00
2018-09-18T19:37:02.310Z,46.10
2018-09-18T19:41:05.674Z,46.40
2018-09-18T19:45:09.006Z,46.40
2018-09-18T19:49:12.354Z,46.70
2018-09-18T19:53:15.682Z,46.80
2018-09-18T19:57:19.010Z,46.90
2018-09-18T20:01:22.444Z,47.10
2018-09-18T20:05:25.774Z,47.20
2018-09-18T20:09:29.239Z,47.30
2018-09-18T20:13:32.491Z,47.40
2018-09-18T20:17:35.820Z,47.40
2018-09-18T20:21:39.251Z,47.50
2018-09-18T20:25:42.590Z,47.60
2018-09-18T20:29:46.209Z,47.70
2018-09-18T20:33:49.507Z,47.70
2018-09-18T20:37:52.901Z,47.90
2018-09-18T20:41:56.243Z,48.00
2018-09-18T20:45:59.579Z,48.00
2018-09-18T20:50:02.925Z,48.30
2018-09-18T20:54:06.276Z,48.40
2018-09-18T20:58:09.578Z,48.50
2018-09-18T21:02:13.001Z,48.50
2018-09-18T21:06:16.262Z,48.60
2018-09-18T21:10:21.075Z,48.70
2018-09-18T21:14:24.431Z,48.80
2018-09-18T21:18:27.780Z,49.30
2018-09-18T21:22:31.129Z,49.10
2018-09-18T21:26:34.465Z,49.40
2018-09-18T21:30:37.828Z,49.30
2018-09-18T21:34:41.142Z,49.40
2018-09-18T21:38:44.486Z,50.10
2018-09-18T21:42:48.156Z,49.60
2018-09-18T21:46:51.692Z,50.20
2018-09-18T21:50:55.262Z,50.40
2018-09-18T21:54:58.734Z,50.30
2018-09-18T21:59:02.338Z,51.00
2018-09-18T22:03:05.739Z,50.60
2018-09-18T22:07:09.157Z,51.20
2018-09-18T22:11:12.461Z,50.80
2018-09-18T22:15:18.895Z,51.10
2018-09-18T22:19:22.371Z,51.40
2018-09-18T22:23:25.699Z,51.30
2018-09-18T22:27:29.047Z,51.60
2018-09-18T22:31:32.360Z,52.40
2018-09-18T22:35:35.691Z,52.00
2018-09-18T22:39:38.986Z,52.00
2018-09-18T22:43:42.350Z,51.80
2018-09-18T22:47:45.695Z,51.70
2018-09-18T22:51:49.023Z,52.20
2018-09-18T22:55:52.364Z,52.60
2018-09-18T22:59:55.699Z,53.10
2018-09-18T23:03:59.155Z,53.20
2018-09-18T23:08:02.469Z,52.40
2018-09-18T23:12:05.836Z,53.30
2018-09-18T23:16:09.177Z,54.00
2018-09-18T23:20:12.472Z,53.40
2018-09-18T23:24:15.803Z,52.50
2018-09-18T23:28:19.134Z,55.20
2018-09-18T23:32:22.473Z,54.10
2018-09-18T23:36:25.787Z,54.20
2018-09-18T23:40:29.099Z,53.00
2018-09-18T23:44:32.484Z,53.30
2018-09-18T23:48:35.824Z,53.50
2018-09-18T23:52:39.154Z,54.80
2018-09-18T23:56:42.478Z,54.60
